createdAt,value
2022-09-28T10:10:28.582Z,99697.28
2022-09-28T10:15:35.785Z,99658.38
2022-09-28T10:20:40.298Z,99658.59
2022-09-28T10:25:45.836Z,99659.09
2022-09-28T10:30:48.142Z,99655.84
2022-09-28T10:35:50.679Z,99660.16
2022-09-28T10:40:56.305Z,99648.44
2022-09-28T10:46:14.929Z,99641.09
2022-09-28T10:51:17.145Z,99644.56
2022-09-28T10:56:24.069Z,99615.72
2022-09-28T11:01:33.376Z,99649.88
2022-09-28T11:06:40.625Z,99602.09
2022-09-28T11:11:43.522Z,99618.34
2022-09-28T11:16:45.737Z,99629.41
2022-09-28T11:21:48.086Z,99608.66
2022-09-28T11:26:56.915Z,99623.16
2022-09-28T11:32:04.569Z,99604.16
2022-09-28T11:37:43.568Z,99634.66
2022-09-28T11:43:17.908Z,99585.19
2022-09-28T11:48:28.168Z,99582.00
2022-09-28T11:53:36.898Z,99566.44
2022-09-28T11:58:48.557Z,99582.28
2022-09-28T12:04:00.499Z,99563.34
2022-09-28T12:09:18.602Z,99584.69
2022-09-28T12:14:27.598Z,99591.03
2022-09-28T12:19:55.798Z,99543.69
2022-09-28T12:24:59.744Z,99582.41
2022-09-28T12:30:17.178Z,99549.34
2022-09-28T12:35:45.342Z,99570.41
2022-09-28T12:40:57.316Z,99577.66
2022-09-28T12:46:28.183Z,99565.78
2022-09-28T12:51:50.193Z,99569.25
2022-09-28T12:57:08.116Z,99562.31
2022-09-28T13:02:31.675Z,99543.22
2022-09-28T13:07:51.211Z,99553.84
2022-09-28T13:13:14.745Z,99560.25
2022-09-28T13:18:46.287Z,99554.84
2022-09-28T13:24:00.718Z,99530.81
2022-09-28T13:29:18.026Z,99566.03
2022-09-28T13:34:25.423Z,99570.41
2022-09-28T13:39:45.813Z,99582.81
2022-09-28T13:45:21.751Z,99570.25
2022-09-28T13:50:45.419Z,99588.75
2022-09-28T13:56:12.766Z,99523.13
2022-09-28T14:01:28.518Z,99581.34
2022-09-28T14:06:32.999Z,99559.25
2022-09-28T14:11:35.285Z,99568.03
2022-09-28T14:16:39.073Z,99558.16
2022-09-28T14:21:56.493Z,99575.78
2022-09-28T14:27:23.061Z,99575.47
2022-09-28T14:32:33.505Z,99536.41
2022-09-28T14:37:58.741Z,99530.38
2022-09-28T14:43:25.580Z,99546.72
2022-09-28T14:48:49.549Z,99537.41
2022-09-28T14:53:57.065Z,99523.63
2022-09-28T14:58:59.560Z,99542.06
2022-09-28T15:04:10.153Z,99552.59
2022-09-28T15:09:45.969Z,99538.53
2022-09-28T15:14:58.951Z,99539.00
2022-09-28T15:20:19.745Z,99548.72
2022-09-28T15:25:25.262Z,99544.16
2022-09-28T15:30:33.247Z,99542.81
2022-09-28T15:35:36.047Z,99561.97
2022-09-28T15:40:39.674Z,99574.22
2022-09-28T15:45:43.845Z,99580.16
2022-09-28T15:51:00.224Z,99570.69
2022-09-28T15:56:10.274Z,99566.38
2022-09-28T16:01:31.306Z,99587.84
2022-09-28T16:06:33.540Z,99567.22
2022-09-28T16:11:41.432Z,99592.16
2022-09-28T16:16:48.423Z,99586.38
2022-09-28T16:21:56.141Z,99619.81
2022-09-28T16:27:05.595Z,99604.47
2022-09-28T16:32:38.856Z,99632.97
2022-09-28T16:37:42.944Z,99608.09
2022-09-28T16:42:49.156Z,99608.34
2022-09-28T16:47:54.950Z,99609.56
2022-09-28T16:53:25.384Z,99615.97
2022-09-28T16:58:29.204Z,99634.16
2022-09-28T17:03:31.523Z,99622.25
2022-09-28T17:08:34.123Z,99608.94
2022-09-28T17:13:36.418Z,99618.50
2022-09-28T17:18:40.166Z,99648.50
2022-09-28T17:23:46.517Z,99642.88
2022-09-28T17:28:48.758Z,99661.38
2022-09-28T17:33:50.903Z,99645.84
2022-09-28T17:38:53.175Z,99666.25
2022-09-28T17:43:55.949Z,99648.16
2022-09-28T17:48:59.929Z,99669.94
2022-09-28T17:54:02.288Z,99651.13
2022-09-28T17:59:07.635Z,99687.41
2022-09-28T18:04:23.062Z,99696.03
2022-09-28T18:09:30.060Z,99657.53
2022-09-28T18:14:32.265Z,99685.53
2022-09-28T18:19:34.489Z,99670.22
2022-09-28T18:24:36.829Z,99672.06
2022-09-28T18:29:39.013Z,99669.13
2022-09-28T18:34:41.199Z,99692.69
2022-09-28T18:39:43.487Z,99677.47
2022-09-28T18:44:45.695Z,99697.19
2022-09-28T18:49:47.843Z,99668.16
2022-09-28T18:54:51.154Z,99677.84
2022-09-28T18:59:53.367Z,99690.88
2022-09-28T19:04:55.897Z,99693.19
2022-09-28T19:09:58.430Z,99724.19
2022-09-28T19:15:00.539Z,99711.81
2022-09-28T19:20:02.724Z,99684.63
2022-09-28T19:25:06.193Z,99707.44
2022-09-28T19:30:08.941Z,99721.66
2022-09-28T19:35:11.218Z,99687.06
2022-09-28T19:40:13.463Z,99752.03
2022-09-28T19:45:15.649Z,99722.16
2022-09-28T19:50:17.849Z,99719.53
2022-09-28T19:55:21.530Z,99734.97
2022-09-28T20:00:23.886Z,99724.38
2022-09-28T20:05:26.080Z,99736.66
2022-09-28T20:10:28.229Z,99744.69
2022-09-28T20:15:31.449Z,99738.03
2022-09-28T20:20:33.629Z,99727.13
2022-09-28T20:25:36.168Z,99754.38
2022-09-28T20:30:39.196Z,99724.34
2022-09-28T20:35:41.724Z,99732.06
2022-09-28T20:40:44.030Z,99714.66
2022-09-28T20:45:46.262Z,99706.72
2022-09-28T20:50:48.415Z,99710.56
2022-09-28T20:56:05.209Z,99721.50
2022-09-28T21:01:10.837Z,99738.47
2022-09-28T21:06:14.606Z,99749.91
2022-09-28T21:11:21.163Z,99760.34
2022-09-28T21:16:23.321Z,99730.34
2022-09-28T21:21:26.705Z,99757.59
2022-09-28T21:26:31.519Z,99758.69
2022-09-28T21:31:40.111Z,99763.41
2022-09-28T21:36:43.797Z,99765.38
2022-09-28T21:41:46.049Z,99729.97
2022-09-28T21:46:48.233Z,99721.59
2022-09-28T21:51:50.412Z,99750.69
2022-09-28T21:56:52.977Z,99736.06
2022-09-28T22:01:55.147Z,99730.94
2022-09-28T22:06:57.339Z,99753.41
2022-09-28T22:11:59.522Z,99750.72
2022-09-28T22:17:01.963Z,99767.38
2022-09-28T22:22:04.501Z,99749.47
2022-09-28T22:27:06.624Z,99757.19
2022-09-28T22:32:09.376Z,99762.34
2022-09-28T22:37:11.618Z,99743.81
2022-09-28T22:42:14.355Z,99766.94
2022-09-28T22:47:16.480Z,99733.50
2022-09-28T22:52:18.639Z,99724.22
2022-09-28T22:57:20.790Z,99761.50
2022-09-28T23:02:23.105Z,99768.03
2022-09-28T23:07:26.588Z,99759.28
2022-09-28T23:12:30.841Z,99748.38
2022-09-28T23:17:33.064Z,99737.50
2022-09-28T23:22:35.225Z,99757.69
2022-09-28T23:27:37.496Z,99735.34
2022-09-28T23:32:39.630Z,99740.59
2022-09-28T23:37:41.756Z,99737.88
2022-09-28T23:42:43.936Z,99747.16
2022-09-28T23:47:46.086Z,99761.59
2022-09-28T23:52:48.888Z,99764.03
2022-09-28T23:57:51.456Z,99702.72
